createdAt,value
2022-10-08T00:01:45.775Z,101142.44
2022-10-08T00:04:15.163Z,101141.31
2022-10-08T00:06:45.245Z,101142.16
2022-10-08T00:09:15.360Z,101149.94
2022-10-08T00:11:45.406Z,101154.09
2022-10-08T00:14:15.539Z,101150.47
2022-10-08T00:16:46.550Z,101152.97
2022-10-08T00:19:17.934Z,101153.66
2022-10-08T00:21:52.287Z,101157.94
2022-10-08T00:24:22.618Z,101155.16
2022-10-08T00:26:53.984Z,101153.22
2022-10-08T00:29:24.454Z,101161.97
2022-10-08T00:31:54.557Z,101166.47
2022-10-08T00:34:25.719Z,101171.56
2022-10-08T00:36:57.590Z,101176.72
2022-10-08T00:39:28.048Z,101175.75
2022-10-08T00:42:01.892Z,101168.78
2022-10-08T00:44:54.831Z,101186.06
2022-10-08T00:47:41.307Z,101170.31
2022-10-08T00:50:32.686Z,101173.63
2022-10-08T00:53:06.454Z,101168.19
2022-10-08T00:55:43.383Z,101173.34
2022-10-08T00:58:22.298Z,101175.66
2022-10-08T01:00:52.967Z,101172.03
2022-10-08T01:03:22.276Z,101170.88
2022-10-08T01:06:13.340Z,101174.25
2022-10-08T01:08:55.939Z,101175.91
2022-10-08T01:11:41.139Z,101172.13
2022-10-08T01:14:29.355Z,101176.41
2022-10-08T01:17:13.604Z,101174.78
2022-10-08T01:20:14.289Z,101182.56
2022-10-08T01:23:14.774Z,101179.94
2022-10-08T01:25:57.213Z,101184.22
2022-10-08T01:28:57.692Z,101188.69
2022-10-08T01:31:37.178Z,101182.56
2022-10-08T01:34:22.908Z,101182.38
2022-10-08T01:36:59.804Z,101176.94
2022-10-08T01:39:34.697Z,101176.94
2022-10-08T01:42:08.736Z,101175.16
2022-10-08T01:44:44.493Z,101180.25
2022-10-08T01:47:20.857Z,101186.28
2022-10-08T01:50:07.218Z,101188.06
2022-10-08T01:52:50.486Z,101185.56
2022-10-08T01:55:38.210Z,101178.31
2022-10-08T01:58:44.431Z,101179.97
2022-10-08T02:01:44.821Z,101177.16
2022-10-08T02:04:32.993Z,101177.16
2022-10-08T02:07:12.447Z,101169.22
2022-10-08T02:09:46.142Z,101172.03
2022-10-08T02:12:17.463Z,101172.03
2022-10-08T02:14:54.481Z,101177.16
2022-10-08T02:17:25.691Z,101168.41
2022-10-08T02:20:04.890Z,101169.06
2022-10-08T02:22:44.758Z,101161.13
2022-10-08T02:25:38.508Z,101157.63
2022-10-08T02:28:29.550Z,101159.97
2022-10-08T02:31:15.563Z,101156.47
2022-10-08T02:34:02.983Z,101160.13
2022-10-08T02:36:39.042Z,101153.97
2022-10-08T02:39:09.968Z,101155.00
2022-10-08T02:41:48.260Z,101151.47
2022-10-08T02:44:28.166Z,101148.69
2022-10-08T02:47:02.783Z,101145.88
2022-10-08T02:49:38.992Z,101153.69
2022-10-08T02:52:12.158Z,101146.56
2022-10-08T02:54:46.118Z,101137.09
2022-10-08T02:57:38.942Z,101143.09
2022-10-08T03:00:10.329Z,101141.25
2022-10-08T03:02:45.285Z,101142.09
2022-10-08T03:05:20.569Z,101138.59
2022-10-08T03:07:53.316Z,101145.59
2022-10-08T03:10:27.222Z,101141.59
2022-10-08T03:13:03.922Z,101142.25
2022-10-08T03:15:35.643Z,101136.97
2022-10-08T03:18:10.788Z,101144.22
2022-10-08T03:20:48.308Z,101149.19
2022-10-08T03:23:20.555Z,101145.06
2022-10-08T03:25:50.767Z,101152.84
2022-10-08T03:28:20.838Z,101142.25
2022-10-08T03:30:50.838Z,101145.72
2022-10-08T03:33:21.085Z,101141.41
2022-10-08T03:35:51.835Z,101134.31
2022-10-08T03:38:25.660Z,101135.13
2022-10-08T03:40:58.389Z,101122.69
2022-10-08T03:43:35.447Z,101125.34
2022-10-08T03:46:06.278Z,101127.69
2022-10-08T03:48:37.125Z,101123.38
2022-10-08T03:51:15.953Z,101109.97
2022-10-08T03:53:46.741Z,101100.34
2022-10-08T03:56:19.566Z,101109.13
2022-10-08T03:58:54.192Z,101110.09
2022-10-08T04:01:25.648Z,101105.66
2022-10-08T04:03:56.296Z,101102.16
2022-10-08T04:06:26.829Z,101106.47
2022-10-08T04:09:02.178Z,101105.66
2022-10-08T04:11:32.870Z,101098.69
2022-10-08T04:14:02.938Z,101097.84
2022-10-08T04:16:33.626Z,101096.84
2022-10-08T04:19:04.361Z,101092.41
2022-10-08T04:21:34.925Z,101090.56
2022-10-08T04:24:05.266Z,101090.56
2022-10-08T04:26:35.455Z,101088.75
2022-10-08T04:29:05.592Z,101083.28
2022-10-08T04:31:35.681Z,101084.97
2022-10-08T04:34:05.767Z,101077.00
2022-10-08T04:36:36.650Z,101075.84
2022-10-08T04:39:07.277Z,101074.88
2022-10-08T04:41:37.543Z,101091.63
2022-10-08T04:44:07.591Z,101079.38
2022-10-08T04:46:37.734Z,101070.41
2022-10-08T04:49:07.722Z,101078.34
2022-10-08T04:51:37.779Z,101077.53
2022-10-08T04:54:07.949Z,101066.78
2022-10-08T04:56:38.388Z,101067.59
2022-10-08T04:59:08.518Z,101057.00
2022-10-08T05:01:38.639Z,101066.78
2022-10-08T05:04:08.759Z,101077.38
2022-10-08T05:06:38.762Z,101077.38
2022-10-08T05:09:09.725Z,101070.41
2022-10-08T05:11:40.295Z,101068.56
2022-10-08T05:14:11.443Z,101050.72
2022-10-08T05:16:42.445Z,101050.88
2022-10-08T05:19:12.378Z,101063.97
2022-10-08T05:21:42.596Z,101054.19
2022-10-08T05:24:14.220Z,101057.81
2022-10-08T05:26:59.719Z,101040.94
2022-10-08T05:29:31.832Z,101042.41
2022-10-08T05:32:02.244Z,101050.22
2022-10-08T05:34:31.713Z,101029.81
2022-10-08T05:37:01.644Z,101035.97
2022-10-08T05:39:31.632Z,101032.31
2022-10-08T05:42:03.413Z,101031.34
2022-10-08T05:44:37.372Z,101037.63
2022-10-08T05:47:07.652Z,101034.00
2022-10-08T05:49:38.277Z,101019.06
2022-10-08T05:52:08.212Z,101009.47
2022-10-08T05:54:38.105Z,101010.44
2022-10-08T05:57:08.041Z,101004.16
2022-10-08T05:59:38.078Z,101003.31
2022-10-08T06:02:08.504Z,101016.41
2022-10-08T06:04:38.759Z,101007.78
2022-10-08T06:07:08.724Z,100999.84
2022-10-08T06:09:38.630Z,101007.78
2022-10-08T06:12:11.729Z,101006.97
2022-10-08T06:14:42.394Z,101019.22
2022-10-08T06:17:12.488Z,101018.41
2022-10-08T06:19:42.524Z,101019.41
2022-10-08T06:22:12.556Z,101000.84
2022-10-08T06:24:43.004Z,100998.19
2022-10-08T06:27:13.158Z,100998.19
2022-10-08T06:29:43.122Z,100995.69
2022-10-08T06:32:13.098Z,100990.38
2022-10-08T06:34:43.356Z,100988.72
2022-10-08T06:37:13.361Z,100986.88
2022-10-08T06:39:48.153Z,100972.81
2022-10-08T06:42:19.513Z,100972.81
2022-10-08T06:44:50.519Z,100986.06
2022-10-08T06:47:20.545Z,100974.63
2022-10-08T06:49:50.519Z,100971.16
2022-10-08T06:52:20.591Z,100975.63
2022-10-08T06:54:51.759Z,100974.94
2022-10-08T06:57:22.653Z,100975.78
2022-10-08T06:59:55.861Z,100981.06
2022-10-08T07:02:26.014Z,100979.44
2022-10-08T07:04:56.221Z,100982.09
2022-10-08T07:07:26.158Z,100988.34
2022-10-08T07:09:57.290Z,100989.22
2022-10-08T07:12:27.588Z,100993.66
2022-10-08T07:14:57.668Z,100995.50
2022-10-08T07:17:29.972Z,100981.25
2022-10-08T07:20:00.757Z,100961.03
2022-10-08T07:22:30.863Z,100955.72
2022-10-08T07:25:02.760Z,100949.59
2022-10-08T07:27:32.699Z,100961.03
2022-10-08T07:30:02.742Z,100954.91
2022-10-08T07:32:32.863Z,100953.06
2022-10-08T07:35:02.917Z,100948.59
2022-10-08T07:37:32.902Z,100948.59
2022-10-08T07:40:02.972Z,100952.91
2022-10-08T07:42:34.831Z,100942.81
2022-10-08T07:45:04.953Z,100946.97
2022-10-08T07:47:35.561Z,100960.06
2022-10-08T07:50:05.715Z,100957.41
2022-10-08T07:52:35.773Z,100954.75
2022-10-08T07:55:06.305Z,100960.88
2022-10-08T07:57:36.500Z,100953.94
2022-10-08T08:00:07.133Z,100950.63
2022-10-08T08:02:41.883Z,100958.72
2022-10-08T08:05:11.892Z,100947.31
2022-10-08T08:07:42.336Z,100946.59
2022-10-08T08:10:12.367Z,100953.06
2022-10-08T08:12:42.310Z,100957.72
2022-10-08T08:15:12.700Z,100950.72
2022-10-08T08:17:42.674Z,100938.47
2022-10-08T08:20:12.817Z,100950.72
2022-10-08T08:22:42.845Z,100957.88
2022-10-08T08:25:12.934Z,100954.84
2022-10-08T08:27:43.203Z,100975.09
2022-10-08T08:30:15.392Z,100966.28
2022-10-08T08:32:46.027Z,100964.63
2022-10-08T08:35:16.896Z,100964.47
2022-10-08T08:37:46.971Z,100971.44
2022-10-08T08:40:16.738Z,100984.84
2022-10-08T08:43:04.630Z,100991.16
2022-10-08T08:45:47.258Z,100981.53
2022-10-08T08:48:28.257Z,100973.41
2022-10-08T08:51:00.957Z,100984.84
2022-10-08T08:53:31.888Z,100972.44
2022-10-08T08:56:07.400Z,100967.28
2022-10-08T08:58:40.732Z,100969.94
2022-10-08T09:01:10.858Z,100966.28
2022-10-08T09:03:52.949Z,100963.78
2022-10-08T09:06:27.469Z,100980.22
2022-10-08T09:09:00.467Z,100975.75
2022-10-08T09:11:31.458Z,100989.00
2022-10-08T09:14:15.812Z,100983.72
2022-10-08T09:16:46.403Z,100971.59
2022-10-08T09:19:16.589Z,100983.88
2022-10-08T09:21:46.595Z,100966.28
2022-10-08T09:24:18.225Z,100974.25
2022-10-08T09:26:48.351Z,100977.03
2022-10-08T09:29:34.860Z,100980.53
2022-10-08T09:32:05.679Z,100979.88
2022-10-08T09:34:36.162Z,100986.81
2022-10-08T09:37:07.863Z,100982.53
2022-10-08T09:39:39.671Z,100968.41
2022-10-08T09:42:09.968Z,100963.13
2022-10-08T09:44:56.629Z,100950.38
2022-10-08T09:47:27.638Z,100955.97
2022-10-08T09:53:13.319Z,100957.09
2022-10-08T09:55:52.844Z,100962.84
2022-10-08T09:58:23.577Z,100983.69
2022-10-08T10:01:08.945Z,100978.69
2022-10-08T10:03:39.870Z,100966.59
2022-10-08T10:06:10.847Z,100980.66
2022-10-08T10:08:52.083Z,100991.94
2022-10-08T10:11:43.251Z,101009.19
2022-10-08T10:14:18.046Z,100991.31
2022-10-08T10:16:56.719Z,100995.66
2022-10-08T10:19:34.556Z,101007.06
2022-10-08T10:22:16.970Z,101013.88
2022-10-08T10:24:49.445Z,101008.56
2022-10-08T10:27:31.719Z,101004.25
2022-10-08T10:30:34.320Z,101013.88
2022-10-08T10:33:16.648Z,101004.25
2022-10-08T10:36:02.490Z,101013.72
2022-10-08T10:38:42.764Z,101022.47
2022-10-08T10:41:52.005Z,101026.81
2022-10-08T10:44:28.952Z,101046.03
2022-10-08T10:47:01.799Z,101061.09
2022-10-08T10:49:39.617Z,101046.84
2022-10-08T10:52:35.783Z,101055.66
2022-10-08T10:55:20.653Z,101068.91
2022-10-08T10:58:15.842Z,101064.44
2022-10-08T11:00:48.515Z,101073.19
2022-10-08T11:04:31.632Z,101073.34
2022-10-08T11:07:45.287Z,101099.34
2022-10-08T11:10:26.611Z,101109.41
2022-10-08T11:13:05.567Z,101092.84
2022-10-08T11:15:50.928Z,101087.53
2022-10-08T11:18:26.954Z,101091.03
2022-10-08T11:21:32.043Z,101072.50
2022-10-08T11:24:11.513Z,101081.41
2022-10-08T11:26:46.605Z,101088.41
2022-10-08T11:29:22.531Z,101107.63
2022-10-08T11:31:54.629Z,101110.13
2022-10-08T11:34:51.606Z,101093.34
2022-10-08T11:37:43.530Z,101105.78
2022-10-08T11:40:34.736Z,101105.13
2022-10-08T11:43:14.192Z,101111.38
2022-10-08T11:45:51.224Z,101111.53
2022-10-08T11:48:41.393Z,101110.72
2022-10-08T11:51:30.456Z,101111.69
2022-10-08T11:54:09.458Z,101118.00
2022-10-08T11:56:43.335Z,101128.88
2022-10-08T11:59:31.417Z,101135.19
2022-10-08T12:02:05.689Z,101137.31
2022-10-08T12:04:39.693Z,101146.38
2022-10-08T12:07:27.763Z,101145.56
2022-10-08T12:10:10.428Z,101138.56
2022-10-08T12:12:52.848Z,101141.53
2022-10-08T12:15:25.611Z,101136.22
2022-10-08T12:17:59.915Z,101142.66
2022-10-08T12:20:36.183Z,101141.84
2022-10-08T12:23:35.931Z,101135.69
2022-10-08T12:26:10.204Z,101142.16
2022-10-08T12:28:49.261Z,101142.16
2022-10-08T12:31:21.912Z,101139.63
2022-10-08T12:34:05.449Z,101141.63
2022-10-08T12:37:07.800Z,101148.03
2022-10-08T12:39:49.487Z,101147.50
2022-10-08T12:42:34.819Z,101145.19
2022-10-08T12:45:32.422Z,101160.22
2022-10-08T12:48:33.214Z,101167.34
2022-10-08T12:51:23.584Z,101157.88
2022-10-08T12:53:53.808Z,101160.69
2022-10-08T12:56:31.126Z,101158.19
2022-10-08T12:59:05.498Z,101160.16
2022-10-08T13:01:36.789Z,101173.69
2022-10-08T13:04:20.225Z,101176.75
2022-10-08T13:06:52.377Z,101177.91
2022-10-08T13:09:31.679Z,101181.97
2022-10-08T13:12:07.042Z,101186.03
2022-10-08T13:14:40.717Z,101176.69
2022-10-08T13:17:31.316Z,101192.03
2022-10-08T13:20:10.397Z,101187.88
2022-10-08T13:22:40.571Z,101183.69
2022-10-08T13:25:44.540Z,101180.09
2022-10-08T13:28:18.208Z,101182.00
2022-10-08T13:30:48.948Z,101184.13
2022-10-08T13:33:25.061Z,101190.41
2022-10-08T13:35:57.725Z,101181.78
2022-10-08T13:38:37.758Z,101187.38
2022-10-08T13:41:10.064Z,101180.72
2022-10-08T13:43:42.709Z,101188.25
2022-10-08T13:46:12.924Z,101185.19
2022-10-08T13:48:46.806Z,101188.25
2022-10-08T13:51:16.976Z,101202.22
2022-10-08T13:53:47.436Z,101207.66
2022-10-08T13:56:19.441Z,101201.81
2022-10-08T13:58:49.472Z,101212.13
2022-10-08T14:01:19.707Z,101210.91
2022-10-08T14:03:50.099Z,101203.66
2022-10-08T14:06:20.704Z,101212.53
2022-10-08T14:08:50.815Z,101206.72
2022-10-08T14:11:21.135Z,101198.50
2022-10-08T14:13:51.374Z,101202.97
2022-10-08T14:16:21.424Z,101215.78
2022-10-08T14:18:51.611Z,101203.94
2022-10-08T14:21:21.815Z,101200.47
2022-10-08T14:23:51.928Z,101215.63
2022-10-08T14:26:22.563Z,101212.72
2022-10-08T14:28:52.926Z,101222.59
2022-10-08T14:31:22.933Z,101228.16
2022-10-08T14:33:53.223Z,101241.25
2022-10-08T14:36:28.435Z,101256.53
2022-10-08T14:38:58.696Z,101263.63
2022-10-08T14:41:29.351Z,101265.03
2022-10-08T14:43:59.602Z,101270.47
2022-10-08T14:46:29.690Z,101281.16
2022-10-08T14:48:59.817Z,101281.88
2022-10-08T14:51:34.557Z,101284.78
2022-10-08T14:54:04.703Z,101284.25
2022-10-08T14:56:35.202Z,101284.09
2022-10-08T14:59:06.562Z,101283.53
2022-10-08T15:01:38.099Z,101292.16
2022-10-08T15:04:09.480Z,101304.69
2022-10-08T15:06:40.027Z,101304.41
2022-10-08T15:09:13.645Z,101312.44
2022-10-08T15:11:44.015Z,101303.00
2022-10-08T15:14:15.887Z,101303.84
2022-10-08T15:16:45.826Z,101285.47
2022-10-08T15:19:18.719Z,101291.31
2022-10-08T15:21:53.151Z,101285.19
2022-10-08T15:24:23.246Z,101270.72
2022-10-08T15:26:53.224Z,101269.03
2022-10-08T15:29:23.427Z,101262.75
2022-10-08T15:31:55.109Z,101266.78
2022-10-08T15:34:25.303Z,101246.47
2022-10-08T15:36:57.203Z,101244.78
2022-10-08T15:39:30.140Z,101249.81
2022-10-08T15:42:02.420Z,101245.50
2022-10-08T15:44:33.625Z,101252.50
2022-10-08T15:47:09.831Z,101260.63
2022-10-08T15:49:43.800Z,101259.47
2022-10-08T15:52:17.505Z,101265.78
2022-10-08T15:54:48.885Z,101268.69
2022-10-08T15:57:19.692Z,101275.78
2022-10-08T15:59:49.881Z,101291.63
2022-10-08T16:02:20.042Z,101292.13
2022-10-08T16:04:50.868Z,101296.19
2022-10-08T16:07:20.230Z,101303.25
2022-10-08T16:09:50.460Z,101312.03
2022-10-08T16:12:21.606Z,101314.47
2022-10-08T16:14:52.168Z,101314.66
2022-10-08T16:17:22.115Z,101318.38
2022-10-08T16:19:52.333Z,101310.72
2022-10-08T16:22:22.262Z,101299.59
2022-10-08T16:24:52.915Z,101294.88
2022-10-08T16:27:22.858Z,101313.22
2022-10-08T16:29:53.887Z,101318.03
2022-10-08T16:32:24.038Z,101307.22
2022-10-08T16:34:54.083Z,101305.84
2022-10-08T16:37:24.049Z,101299.44
2022-10-08T16:39:54.002Z,101296.69
2022-10-08T16:42:24.071Z,101299.81
2022-10-08T16:44:54.185Z,101315.41
2022-10-08T16:47:24.228Z,101311.63
2022-10-08T16:49:54.881Z,101308.84
2022-10-08T16:52:24.813Z,101312.84
2022-10-08T16:54:54.910Z,101313.50
2022-10-08T16:57:26.021Z,101314.06
2022-10-08T16:59:56.005Z,101302.94
2022-10-08T17:02:27.107Z,101300.56
2022-10-08T17:04:57.155Z,101306.28
2022-10-08T17:07:27.438Z,101312.22
2022-10-08T17:09:57.555Z,101311.00
2022-10-08T17:12:28.204Z,101316.13
2022-10-08T17:14:58.480Z,101308.34
2022-10-08T17:17:29.419Z,101305.72
2022-10-08T17:19:59.353Z,101303.19
2022-10-08T17:22:30.144Z,101298.06
2022-10-08T17:25:00.100Z,101294.28
2022-10-08T17:27:31.096Z,101293.00
2022-10-08T17:30:01.027Z,101266.88
2022-10-08T17:32:31.313Z,101258.69
2022-10-08T17:35:01.255Z,101261.22
2022-10-08T17:37:31.299Z,101257.06
2022-10-08T17:40:01.316Z,101252.84
2022-10-08T17:42:31.541Z,101255.63
2022-10-08T17:45:01.445Z,101260.31
2022-10-08T17:47:31.436Z,101242.69
2022-10-08T17:50:01.358Z,101259.03
2022-10-08T17:52:31.336Z,101266.72
2022-10-08T17:55:01.242Z,101279.94
2022-10-08T17:57:31.304Z,101286.91
2022-10-08T18:00:01.228Z,101291.47
2022-10-08T18:02:38.531Z,101300.09
2022-10-08T18:05:09.032Z,101303.41
2022-10-08T18:07:38.306Z,101306.75
2022-10-08T18:10:08.004Z,101308.44
2022-10-08T18:12:39.236Z,101300.66
2022-10-08T18:15:11.324Z,101298.97
2022-10-08T18:17:41.558Z,101293.81
2022-10-08T18:20:11.624Z,101293.13
2022-10-08T18:22:41.623Z,101286.19
2022-10-08T18:25:12.293Z,101273.50
2022-10-08T18:27:42.892Z,101266.16
2022-10-08T18:30:13.445Z,101265.84
2022-10-08T18:32:45.180Z,101256.97
2022-10-08T18:35:15.798Z,101243.09
2022-10-08T18:37:48.511Z,101236.69
2022-10-08T18:40:18.757Z,101237.63
2022-10-08T18:42:48.991Z,101244.00
2022-10-08T18:45:19.633Z,101251.22
2022-10-08T18:47:49.735Z,101251.22
2022-10-08T18:50:19.711Z,101251.06
2022-10-08T18:52:50.031Z,101245.09
2022-10-08T18:55:21.079Z,101252.84
2022-10-08T18:57:55.726Z,101263.66
2022-10-08T19:00:26.007Z,101253.00
2022-10-08T19:02:58.795Z,101244.97
2022-10-08T19:05:29.388Z,101237.88
2022-10-08T19:07:59.426Z,101239.56
2022-10-08T19:10:29.529Z,101237.72
2022-10-08T19:12:59.488Z,101245.22
2022-10-08T19:15:29.479Z,101245.63
2022-10-08T19:17:59.394Z,101235.78
2022-10-08T19:20:29.361Z,101235.56
2022-10-08T19:22:59.450Z,101233.59
2022-10-08T19:25:31.281Z,101237.00
2022-10-08T19:28:01.678Z,101233.72
2022-10-08T19:30:35.437Z,101229.97
2022-10-08T19:33:05.695Z,101240.53
2022-10-08T19:35:35.688Z,101245.78
2022-10-08T19:38:05.702Z,101252.28
2022-10-08T19:40:38.821Z,101247.97
2022-10-08T19:43:08.904Z,101250.38
2022-10-08T19:45:39.044Z,101249.41
2022-10-08T19:48:11.150Z,101258.16
2022-10-08T19:50:41.787Z,101258.16
2022-10-08T19:53:11.842Z,101263.28
2022-10-08T19:55:41.937Z,101263.22
2022-10-08T19:58:12.386Z,101273.38
2022-10-08T20:00:42.405Z,101264.66
2022-10-08T20:03:12.333Z,101266.19
2022-10-08T20:05:42.422Z,101277.72
2022-10-08T20:08:13.401Z,101264.53
2022-10-08T20:10:44.176Z,101265.22
2022-10-08T20:13:14.378Z,101261.78
2022-10-08T20:15:48.967Z,101271.00
2022-10-08T20:18:20.760Z,101276.28
2022-10-08T20:21:00.975Z,101283.13
2022-10-08T20:23:31.162Z,101297.25
2022-10-08T20:26:13.438Z,101281.56
2022-10-08T20:28:44.802Z,101292.22
2022-10-08T20:31:23.907Z,101301.03
2022-10-08T20:34:06.112Z,101311.09
2022-10-08T20:36:36.023Z,101311.91
2022-10-08T20:39:06.894Z,101316.25
2022-10-08T20:41:37.377Z,101308.25
2022-10-08T20:44:07.862Z,101316.97
2022-10-08T20:46:39.030Z,101316.63
2022-10-08T20:49:10.079Z,101329.34
2022-10-08T20:51:42.096Z,101317.72
2022-10-08T20:54:15.780Z,101324.59
2022-10-08T20:56:46.988Z,101329.72
2022-10-08T20:59:19.791Z,101338.94
2022-10-08T21:01:52.386Z,101341.00
2022-10-08T21:04:23.027Z,101342.91
2022-10-08T21:06:54.519Z,101338.09
2022-10-08T21:09:24.779Z,101352.81
2022-10-08T21:11:55.573Z,101350.78
2022-10-08T21:14:26.287Z,101362.97
2022-10-08T21:16:56.254Z,101363.25
2022-10-08T21:19:27.187Z,101368.66
2022-10-08T21:21:57.506Z,101362.66
2022-10-08T21:24:27.704Z,101370.94
2022-10-08T21:26:57.654Z,101377.44
2022-10-08T21:29:27.743Z,101404.06
2022-10-08T21:31:57.749Z,101407.41
2022-10-08T21:34:27.947Z,101400.31
2022-10-08T21:36:58.374Z,101418.66
2022-10-08T21:39:28.363Z,101414.47
2022-10-08T21:41:58.436Z,101414.94
2022-10-08T21:44:28.511Z,101429.19
2022-10-08T21:46:58.641Z,101419.75
2022-10-08T21:49:28.875Z,101431.13
2022-10-08T21:51:59.558Z,101414.47
2022-10-08T21:54:29.686Z,101418.94
2022-10-08T21:56:59.760Z,101415.31
2022-10-08T21:59:29.849Z,101420.34
2022-10-08T22:01:59.762Z,101425.63
2022-10-08T22:04:29.754Z,101429.91
2022-10-08T22:07:00.773Z,101431.13
2022-10-08T22:09:33.597Z,101429.47
2022-10-08T22:12:04.325Z,101431.38
2022-10-08T22:14:34.288Z,101455.09
2022-10-08T22:17:04.577Z,101441.00
2022-10-08T22:19:38.127Z,101454.91
2022-10-08T22:22:08.134Z,101448.28
2022-10-08T22:24:39.385Z,101459.31
2022-10-08T22:27:09.310Z,101462.53
2022-10-08T22:29:39.259Z,101461.81
2022-10-08T22:32:08.568Z,101468.91
2022-10-08T22:34:39.654Z,101460.38
2022-10-08T22:37:09.586Z,101462.78
2022-10-08T22:39:39.715Z,101453.19
2022-10-08T22:42:09.927Z,101455.09
2022-10-08T22:44:39.894Z,101477.91
2022-10-08T22:47:10.309Z,101486.50
2022-10-08T22:49:40.407Z,101492.50
2022-10-08T22:52:10.368Z,101490.47
2022-10-08T22:54:40.285Z,101503.03
2022-10-08T22:57:10.246Z,101509.47
2022-10-08T22:59:40.286Z,101521.97
2022-10-08T23:02:10.378Z,101534.78
2022-10-08T23:04:40.381Z,101516.78
2022-10-08T23:07:10.377Z,101514.34
2022-10-08T23:09:40.391Z,101541.09
2022-10-08T23:12:10.363Z,101522.84
2022-10-08T23:14:40.454Z,101530.78
2022-10-08T23:17:09.827Z,101539.75
2022-10-08T23:19:39.895Z,101553.41
2022-10-08T23:22:09.824Z,101546.94
2022-10-08T23:24:39.798Z,101545.84
2022-10-08T23:27:09.879Z,101546.19
2022-10-08T23:29:39.921Z,101539.56
2022-10-08T23:32:10.029Z,101555.97
2022-10-08T23:34:40.012Z,101552.84
2022-10-08T23:37:10.073Z,101558.59
2022-10-08T23:39:40.066Z,101565.28
2022-10-08T23:42:10.054Z,101542.75
2022-10-08T23:44:40.777Z,101548.47
2022-10-08T23:47:10.798Z,101562.00
2022-10-08T23:49:40.905Z,101557.19
2022-10-08T23:52:10.919Z,101564.88
2022-10-08T23:54:41.018Z,101562.56
2022-10-08T23:57:11.544Z,101557.63
2022-10-08T23:59:42.132Z,101546.47
